sensor_id;sensor_type;location;lat;lon;timestamp;P1;durP1;ratioP1;P2;durP2;ratioP2
80101;SDS011;69407;44.966;19.622;2023-05-01T00:00:50;8.63;;;5.20;;
80101;SDS011;69407;44.966;19.622;2023-05-01T00:03:16;8.98;;;5.75;;
80101;SDS011;69407;44.966;19.622;2023-05-01T00:05:42;9.77;;;5.47;;
80101;SDS011;69407;44.966;19.622;2023-05-01T00:08:08;11.60;;;5.43;;
80101;SDS011;69407;44.966;19.622;2023-05-01T00:10:35;9.30;;;6.35;;
80101;SDS011;69407;44.966;19.622;2023-05-01T00:13:01;10.07;;;5.45;;
80101;SDS011;69407;44.966;19.622;2023-05-01T00:15:26;9.77;;;6.43;;
80101;SDS011;69407;44.966;19.622;2023-05-01T00:17:52;18.33;;;6.18;;
80101;SDS011;69407;44.966;19.622;2023-05-01T00:20:19;10.82;;;6.18;;
80101;SDS011;69407;44.966;19.622;2023-05-01T00:22:44;10.98;;;6.25;;
80101;SDS011;69407;44.966;19.622;2023-05-01T00:25:10;12.05;;;6.68;;
80101;SDS011;69407;44.966;19.622;2023-05-01T00:27:35;9.45;;;5.88;;
80101;SDS011;69407;44.966;19.622;2023-05-01T00:30:01;10.52;;;6.15;;
80101;SDS011;69407;44.966;19.622;2023-05-01T00:32:27;12.50;;;6.32;;
80101;SDS011;69407;44.966;19.622;2023-05-01T00:34:53;8.55;;;5.93;;
80101;SDS011;69407;44.966;19.622;2023-05-01T00:37:20;9.95;;;5.90;;
80101;SDS011;69407;44.966;19.622;2023-05-01T00:39:46;8.90;;;5.80;;
80101;SDS011;69407;44.966;19.622;2023-05-01T00:42:11;10.20;;;5.82;;
80101;SDS011;69407;44.966;19.622;2023-05-01T00:44:36;8.48;;;5.72;;
80101;SDS011;69407;44.966;19.622;2023-05-01T00:47:02;10.10;;;6.13;;
80101;SDS011;69407;44.966;19.622;2023-05-01T00:49:29;9.75;;;5.05;;
80101;SDS011;69407;44.966;19.622;2023-05-01T00:51:55;9.10;;;5.90;;
80101;SDS011;69407;44.966;19.622;2023-05-01T00:54:21;11.18;;;5.85;;
80101;SDS011;69407;44.966;19.622;2023-05-01T00:56:47;9.40;;;5.85;;
80101;SDS011;69407;44.966;19.622;2023-05-01T00:59:13;8.05;;;5.53;;
80101;SDS011;69407;44.966;19.622;2023-05-01T01:01:42;7.80;;;5.00;;
80101;SDS011;69407;44.966;19.622;2023-05-01T01:04:07;9.23;;;5.18;;
80101;SDS011;69407;44.966;19.622;2023-05-01T01:12:13;7.10;;;4.88;;
80101;SDS011;69407;44.966;19.622;2023-05-01T01:14:54;10.73;;;6.10;;
80101;SDS011;69407;44.966;19.622;2023-05-01T01:17:31;10.50;;;5.38;;
80101;SDS011;69407;44.966;19.622;2023-05-01T01:22:42;9.68;;;6.00;;
80101;SDS011;69407;44.966;19.622;2023-05-01T01:25:23;11.43;;;5.55;;
80101;SDS011;69407;44.966;19.622;2023-05-01T01:28:06;11.30;;;5.57;;
80101;SDS011;69407;44.966;19.622;2023-05-01T01:33:46;9.40;;;5.68;;
80101;SDS011;69407;44.966;19.622;2023-05-01T01:36:19;11.18;;;5.18;;
80101;SDS011;69407;44.966;19.622;2023-05-01T01:38:57;7.20;;;5.45;;
80101;SDS011;69407;44.966;19.622;2023-05-01T01:41:32;8.77;;;5.63;;
80101;SDS011;69407;44.966;19.622;2023-05-01T01:44:04;8.52;;;5.35;;
80101;SDS011;69407;44.966;19.622;2023-05-01T01:46:34;7.97;;;5.28;;
80101;SDS011;69407;44.966;19.622;2023-05-01T01:49:03;7.85;;;4.97;;
80101;SDS011;69407;44.966;19.622;2023-05-01T01:51:31;9.48;;;5.47;;
80101;SDS011;69407;44.966;19.622;2023-05-01T01:54:00;8.77;;;5.38;;
80101;SDS011;69407;44.966;19.622;2023-05-01T01:56:26;8.27;;;4.88;;
80101;SDS011;69407;44.966;19.622;2023-05-01T02:01:21;9.63;;;5.35;;
80101;SDS011;69407;44.966;19.622;2023-05-01T02:03:48;7.75;;;4.75;;
80101;SDS011;69407;44.966;19.622;2023-05-01T02:06:14;7.22;;;5.18;;
80101;SDS011;69407;44.966;19.622;2023-05-01T02:08:41;7.97;;;5.13;;
80101;SDS011;69407;44.966;19.622;2023-05-01T02:11:08;9.10;;;5.82;;
80101;SDS011;69407;44.966;19.622;2023-05-01T02:13:38;7.55;;;5.50;;
80101;SDS011;69407;44.966;19.622;2023-05-01T02:16:05;10.13;;;5.82;;
80101;SDS011;69407;44.966;19.622;2023-05-01T02:18:32;8.38;;;5.30;;
80101;SDS011;69407;44.966;19.622;2023-05-01T02:21:00;9.80;;;5.40;;
80101;SDS011;69407;44.966;19.622;2023-05-01T02:23:28;9.48;;;5.32;;
80101;SDS011;69407;44.966;19.622;2023-05-01T02:25:56;8.27;;;5.88;;
80101;SDS011;69407;44.966;19.622;2023-05-01T02:28:27;8.38;;;5.10;;
80101;SDS011;69407;44.966;19.622;2023-05-01T02:30:54;7.68;;;5.28;;
80101;SDS011;69407;44.966;19.622;2023-05-01T02:33:19;10.68;;;6.00;;
80101;SDS011;69407;44.966;19.622;2023-05-01T02:35:45;8.52;;;5.63;;
80101;SDS011;69407;44.966;19.622;2023-05-01T02:38:11;8.75;;;5.85;;
80101;SDS011;69407;44.966;19.622;2023-05-01T02:40:39;10.40;;;5.28;;
80101;SDS011;69407;44.966;19.622;2023-05-01T02:43:08;10.23;;;5.07;;
80101;SDS011;69407;44.966;19.622;2023-05-01T02:45:37;10.60;;;5.18;;
80101;SDS011;69407;44.966;19.622;2023-05-01T02:48:04;9.60;;;5.60;;
80101;SDS011;69407;44.966;19.622;2023-05-01T02:50:32;7.90;;;5.35;;
80101;SDS011;69407;44.966;19.622;2023-05-01T02:52:58;9.40;;;4.22;;
80101;SDS011;69407;44.966;19.622;2023-05-01T02:55:25;10.35;;;5.65;;
80101;SDS011;69407;44.966;19.622;2023-05-01T02:57:51;7.85;;;5.28;;
80101;SDS011;69407;44.966;19.622;2023-05-01T03:03:16;11.15;;;6.13;;
80101;SDS011;69407;44.966;19.622;2023-05-01T03:05:41;12.90;;;5.03;;
80101;SDS011;69407;44.966;19.622;2023-05-01T03:08:07;9.02;;;5.22;;
80101;SDS011;69407;44.966;19.622;2023-05-01T03:10:33;8.73;;;5.72;;
80101;SDS011;69407;44.966;19.622;2023-05-01T03:12:59;7.97;;;5.13;;
80101;SDS011;69407;44.966;19.622;2023-05-01T03:15:25;9.23;;;5.55;;
80101;SDS011;69407;44.966;19.622;2023-05-01T03:17:50;11.10;;;6.18;;
80101;SDS011;69407;44.966;19.622;2023-05-01T03:20:16;8.23;;;5.13;;
80101;SDS011;69407;44.966;19.622;2023-05-01T03:22:41;9.00;;;5.13;;
80101;SDS011;69407;44.966;19.622;2023-05-01T03:25:07;9.32;;;5.68;;
80101;SDS011;69407;44.966;19.622;2023-05-01T03:27:33;8.18;;;5.10;;
80101;SDS011;69407;44.966;19.622;2023-05-01T03:29:59;9.98;;;5.75;;
80101;SDS011;69407;44.966;19.622;2023-05-01T03:32:24;10.75;;;5.45;;
80101;SDS011;69407;44.966;19.622;2023-05-01T03:34:50;8.52;;;6.45;;
80101;SDS011;69407;44.966;19.622;2023-05-01T03:37:15;12.05;;;5.93;;
80101;SDS011;69407;44.966;19.622;2023-05-01T03:39:41;13.52;;;6.53;;
80101;SDS011;69407;44.966;19.622;2023-05-01T03:42:06;9.88;;;6.07;;
80101;SDS011;69407;44.966;19.622;2023-05-01T03:44:32;10.05;;;6.50;;
80101;SDS011;69407;44.966;19.622;2023-05-01T03:46:57;13.23;;;8.27;;
80101;SDS011;69407;44.966;19.622;2023-05-01T03:49:23;8.48;;;6.45;;
80101;SDS011;69407;44.966;19.622;2023-05-01T03:51:48;11.05;;;6.78;;
80101;SDS011;69407;44.966;19.622;2023-05-01T03:54:14;9.95;;;6.07;;
80101;SDS011;69407;44.966;19.622;2023-05-01T03:56:39;10.30;;;6.85;;
80101;SDS011;69407;44.966;19.622;2023-05-01T03:59:05;13.93;;;6.20;;
80101;SDS011;69407;44.966;19.622;2023-05-01T04:01:31;8.32;;;5.68;;
80101;SDS011;69407;44.966;19.622;2023-05-01T04:06:25;10.02;;;6.20;;
80101;SDS011;69407;44.966;19.622;2023-05-01T04:08:52;8.93;;;5.68;;
80101;SDS011;69407;44.966;19.622;2023-05-01T04:11:17;12.18;;;6.18;;
80101;SDS011;69407;44.966;19.622;2023-05-01T04:13:43;8.48;;;5.57;;
80101;SDS011;69407;44.966;19.622;2023-05-01T04:16:08;11.65;;;6.13;;
80101;SDS011;69407;44.966;19.622;2023-05-01T04:18:34;9.45;;;6.18;;
80101;SDS011;69407;44.966;19.622;2023-05-01T04:20:59;12.15;;;6.47;;
80101;SDS011;69407;44.966;19.622;2023-05-01T04:23:25;12.55;;;6.68;;
80101;SDS011;69407;44.966;19.622;2023-05-01T04:25:50;14.07;;;7.18;;
80101;SDS011;69407;44.966;19.622;2023-05-01T04:28:16;11.23;;;7.28;;
80101;SDS011;69407;44.966;19.622;2023-05-01T04:30:41;9.70;;;6.45;;
80101;SDS011;69407;44.966;19.622;2023-05-01T04:33:07;10.77;;;6.80;;
80101;SDS011;69407;44.966;19.622;2023-05-01T04:35:38;10.68;;;6.03;;
80101;SDS011;69407;44.966;19.622;2023-05-01T04:38:05;12.82;;;7.53;;
80101;SDS011;69407;44.966;19.622;2023-05-01T04:40:31;12.07;;;7.70;;
80101;SDS011;69407;44.966;19.622;2023-05-01T04:42:56;13.30;;;7.43;;
80101;SDS011;69407;44.966;19.622;2023-05-01T04:45:22;12.20;;;6.68;;
80101;SDS011;69407;44.966;19.622;2023-05-01T04:47:47;13.63;;;7.00;;
80101;SDS011;69407;44.966;19.622;2023-05-01T04:50:13;11.10;;;7.03;;
80101;SDS011;69407;44.966;19.622;2023-05-01T04:52:38;12.27;;;7.55;;
80101;SDS011;69407;44.966;19.622;2023-05-01T04:55:04;14.95;;;8.90;;
80101;SDS011;69407;44.966;19.622;2023-05-01T04:57:30;11.30;;;7.38;;
80101;SDS011;69407;44.966;19.622;2023-05-01T04:59:56;11.63;;;7.85;;
80101;SDS011;69407;44.966;19.622;2023-05-01T05:02:22;11.25;;;7.00;;
80101;SDS011;69407;44.966;19.622;2023-05-01T05:04:47;14.98;;;6.90;;
80101;SDS011;69407;44.966;19.622;2023-05-01T05:07:13;16.02;;;8.32;;
80101;SDS011;69407;44.966;19.622;2023-05-01T05:09:38;22.55;;;12.45;;
80101;SDS011;69407;44.966;19.622;2023-05-01T05:12:04;21.23;;;11.38;;
80101;SDS011;69407;44.966;19.622;2023-05-01T05:14:30;26.70;;;14.02;;
80101;SDS011;69407;44.966;19.622;2023-05-01T05:16:55;21.40;;;10.52;;
80101;SDS011;69407;44.966;19.622;2023-05-01T05:19:21;12.75;;;7.65;;
80101;SDS011;69407;44.966;19.622;2023-05-01T05:21:46;14.13;;;7.40;;
80101;SDS011;69407;44.966;19.622;2023-05-01T05:24:12;12.88;;;6.95;;
80101;SDS011;69407;44.966;19.622;2023-05-01T05:26:38;12.40;;;7.70;;
80101;SDS011;69407;44.966;19.622;2023-05-01T05:29:03;11.52;;;6.75;;
80101;SDS011;69407;44.966;19.622;2023-05-01T05:31:29;10.20;;;7.30;;
80101;SDS011;69407;44.966;19.622;2023-05-01T05:33:55;11.73;;;7.38;;
80101;SDS011;69407;44.966;19.622;2023-05-01T05:36:20;12.45;;;7.15;;
80101;SDS011;69407;44.966;19.622;2023-05-01T05:38:46;16.63;;;8.15;;
80101;SDS011;69407;44.966;19.622;2023-05-01T05:41:11;17.67;;;9.90;;
80101;SDS011;69407;44.966;19.622;2023-05-01T05:43:36;17.33;;;10.30;;
80101;SDS011;69407;44.966;19.622;2023-05-01T05:46:02;14.15;;;7.82;;
80101;SDS011;69407;44.966;19.622;2023-05-01T05:48:28;12.60;;;8.20;;
80101;SDS011;69407;44.966;19.622;2023-05-01T05:50:53;12.07;;;7.95;;
80101;SDS011;69407;44.966;19.622;2023-05-01T05:53:19;12.75;;;8.20;;
80101;SDS011;69407;44.966;19.622;2023-05-01T05:55:48;13.65;;;7.20;;
80101;SDS011;69407;44.966;19.622;2023-05-01T05:58:14;12.52;;;7.90;;
80101;SDS011;69407;44.966;19.622;2023-05-01T06:00:44;11.25;;;6.50;;
80101;SDS011;69407;44.966;19.622;2023-05-01T06:03:11;11.52;;;7.05;;
80101;SDS011;69407;44.966;19.622;2023-05-01T06:05:37;9.65;;;6.18;;
80101;SDS011;69407;44.966;19.622;2023-05-01T06:08:02;11.68;;;6.72;;
80101;SDS011;69407;44.966;19.622;2023-05-01T06:10:28;11.90;;;7.40;;
80101;SDS011;69407;44.966;19.622;2023-05-01T06:12:53;10.27;;;6.97;;
80101;SDS011;69407;44.966;19.622;2023-05-01T06:15:19;16.70;;;8.07;;
80101;SDS011;69407;44.966;19.622;2023-05-01T06:17:45;8.88;;;6.05;;
80101;SDS011;69407;44.966;19.622;2023-05-01T06:20:10;13.35;;;8.50;;
80101;SDS011;69407;44.966;19.622;2023-05-01T06:22:38;12.13;;;7.63;;
80101;SDS011;69407;44.966;19.622;2023-05-01T06:25:04;10.48;;;6.80;;
80101;SDS011;69407;44.966;19.622;2023-05-01T06:27:31;10.73;;;7.30;;
80101;SDS011;69407;44.966;19.622;2023-05-01T06:29:56;12.88;;;7.35;;
80101;SDS011;69407;44.966;19.622;2023-05-01T06:32:21;10.85;;;5.93;;
80101;SDS011;69407;44.966;19.622;2023-05-01T06:34:47;10.60;;;6.47;;
80101;SDS011;69407;44.966;19.622;2023-05-01T06:37:13;12.82;;;7.55;;
80101;SDS011;69407;44.966;19.622;2023-05-01T06:39:38;10.98;;;6.78;;
80101;SDS011;69407;44.966;19.622;2023-05-01T06:42:03;10.75;;;7.15;;
80101;SDS011;69407;44.966;19.622;2023-05-01T06:44:30;10.00;;;6.78;;
80101;SDS011;69407;44.966;19.622;2023-05-01T06:46:56;11.18;;;5.88;;
80101;SDS011;69407;44.966;19.622;2023-05-01T06:49:22;7.82;;;4.97;;
80101;SDS011;69407;44.966;19.622;2023-05-01T06:51:48;7.85;;;5.28;;
80101;SDS011;69407;44.966;19.622;2023-05-01T06:54:13;7.15;;;5.05;;
80101;SDS011;69407;44.966;19.622;2023-05-01T06:56:39;10.05;;;4.70;;
80101;SDS011;69407;44.966;19.622;2023-05-01T06:59:04;8.18;;;5.20;;
80101;SDS011;69407;44.966;19.622;2023-05-01T07:01:30;8.30;;;5.07;;
80101;SDS011;69407;44.966;19.622;2023-05-01T07:03:56;6.88;;;4.80;;
80101;SDS011;69407;44.966;19.622;2023-05-01T07:06:21;11.63;;;4.72;;
80101;SDS011;69407;44.966;19.622;2023-05-01T07:08:46;5.95;;;3.90;;
80101;SDS011;69407;44.966;19.622;2023-05-01T07:11:12;6.68;;;4.30;;
80101;SDS011;69407;44.966;19.622;2023-05-01T07:13:38;8.93;;;4.75;;
80101;SDS011;69407;44.966;19.622;2023-05-01T07:16:03;6.28;;;4.40;;
80101;SDS011;69407;44.966;19.622;2023-05-01T07:18:29;11.35;;;5.13;;
80101;SDS011;69407;44.966;19.622;2023-05-01T07:20:54;6.03;;;4.43;;
80101;SDS011;69407;44.966;19.622;2023-05-01T07:23:20;8.07;;;4.82;;
80101;SDS011;69407;44.966;19.622;2023-05-01T07:25:47;8.57;;;4.43;;
80101;SDS011;69407;44.966;19.622;2023-05-01T07:28:13;13.15;;;4.50;;
80101;SDS011;69407;44.966;19.622;2023-05-01T07:30:38;7.25;;;4.78;;
80101;SDS011;69407;44.966;19.622;2023-05-01T07:33:04;8.23;;;5.10;;
80101;SDS011;69407;44.966;19.622;2023-05-01T07:35:30;9.23;;;4.40;;
80101;SDS011;69407;44.966;19.622;2023-05-01T07:37:56;7.20;;;4.30;;
80101;SDS011;69407;44.966;19.622;2023-05-01T07:40:22;7.90;;;4.60;;
80101;SDS011;69407;44.966;19.622;2023-05-01T07:42:47;7.38;;;4.70;;
80101;SDS011;69407;44.966;19.622;2023-05-01T07:45:13;7.93;;;4.90;;
80101;SDS011;69407;44.966;19.622;2023-05-01T07:47:38;6.75;;;4.13;;
80101;SDS011;69407;44.966;19.622;2023-05-01T07:50:04;7.57;;;4.72;;
80101;SDS011;69407;44.966;19.622;2023-05-01T07:52:34;7.03;;;5.78;;
80101;SDS011;69407;44.966;19.622;2023-05-01T07:55:01;7.05;;;6.35;;
80101;SDS011;69407;44.966;19.622;2023-05-01T07:57:26;6.97;;;5.80;;
80101;SDS011;69407;44.966;19.622;2023-05-01T07:59:52;9.55;;;7.82;;
80101;SDS011;69407;44.966;19.622;2023-05-01T08:02:21;9.35;;;7.72;;
80101;SDS011;69407;44.966;19.622;2023-05-01T08:04:47;8.80;;;7.00;;
80101;SDS011;69407;44.966;19.622;2023-05-01T08:07:12;8.70;;;6.97;;
80101;SDS011;69407;44.966;19.622;2023-05-01T08:09:38;7.90;;;7.18;;
80101;SDS011;69407;44.966;19.622;2023-05-01T08:12:04;8.45;;;7.75;;
80101;SDS011;69407;44.966;19.622;2023-05-01T08:14:29;8.30;;;7.47;;
80101;SDS011;69407;44.966;19.622;2023-05-01T08:16:55;8.02;;;7.25;;
80101;SDS011;69407;44.966;19.622;2023-05-01T08:19:21;8.52;;;7.88;;
80101;SDS011;69407;44.966;19.622;2023-05-01T08:21:47;9.90;;;8.45;;
80101;SDS011;69407;44.966;19.622;2023-05-01T08:24:12;6.65;;;5.85;;
80101;SDS011;69407;44.966;19.622;2023-05-01T08:26:38;9.02;;;8.27;;
80101;SDS011;69407;44.966;19.622;2023-05-01T08:29:03;10.18;;;9.13;;
80101;SDS011;69407;44.966;19.622;2023-05-01T08:31:29;10.35;;;9.20;;
80101;SDS011;69407;44.966;19.622;2023-05-01T08:33:55;12.35;;;11.27;;
80101;SDS011;69407;44.966;19.622;2023-05-01T08:36:20;8.88;;;6.47;;
80101;SDS011;69407;44.966;19.622;2023-05-01T08:38:46;8.45;;;6.35;;
80101;SDS011;69407;44.966;19.622;2023-05-01T08:41:19;9.38;;;6.43;;
80101;SDS011;69407;44.966;19.622;2023-05-01T08:43:45;8.65;;;6.40;;
80101;SDS011;69407;44.966;19.622;2023-05-01T08:46:11;7.82;;;7.03;;
80101;SDS011;69407;44.966;19.622;2023-05-01T08:48:39;14.32;;;5.90;;
80101;SDS011;69407;44.966;19.622;2023-05-01T08:51:07;6.57;;;5.88;;
80101;SDS011;69407;44.966;19.622;2023-05-01T08:53:34;170.40;;;22.13;;
80101;SDS011;69407;44.966;19.622;2023-05-01T08:56:04;6.53;;;5.35;;
80101;SDS011;69407;44.966;19.622;2023-05-01T08:58:32;5.13;;;3.67;;
80101;SDS011;69407;44.966;19.622;2023-05-01T09:01:00;7.82;;;4.90;;
80101;SDS011;69407;44.966;19.622;2023-05-01T09:03:27;7.22;;;4.30;;
80101;SDS011;69407;44.966;19.622;2023-05-01T09:05:57;7.95;;;4.72;;
80101;SDS011;69407;44.966;19.622;2023-05-01T09:08:24;22.45;;;4.95;;
80101;SDS011;69407;44.966;19.622;2023-05-01T09:10:49;9.32;;;4.82;;
80101;SDS011;69407;44.966;19.622;2023-05-01T09:15:43;7.07;;;5.60;;
80101;SDS011;69407;44.966;19.622;2023-05-01T09:18:09;9.02;;;4.22;;
80101;SDS011;69407;44.966;19.622;2023-05-01T09:20:35;8.85;;;5.97;;
80101;SDS011;69407;44.966;19.622;2023-05-01T09:23:01;5.47;;;3.75;;
80101;SDS011;69407;44.966;19.622;2023-05-01T09:25:27;4.72;;;3.60;;
80101;SDS011;69407;44.966;19.622;2023-05-01T09:27:53;9.50;;;4.97;;
80101;SDS011;69407;44.966;19.622;2023-05-01T09:30:32;57.70;;;26.33;;
80101;SDS011;69407;44.966;19.622;2023-05-01T09:33:05;72.45;;;22.58;;
80101;SDS011;69407;44.966;19.622;2023-05-01T09:35:31;9.05;;;6.40;;
80101;SDS011;69407;44.966;19.622;2023-05-01T09:37:58;10.65;;;5.07;;
80101;SDS011;69407;44.966;19.622;2023-05-01T09:40:26;4.97;;;3.50;;
80101;SDS011;69407;44.966;19.622;2023-05-01T09:42:52;6.93;;;4.07;;
80101;SDS011;69407;44.966;19.622;2023-05-01T09:45:22;7.10;;;5.38;;
80101;SDS011;69407;44.966;19.622;2023-05-01T09:47:48;7.15;;;4.72;;
80101;SDS011;69407;44.966;19.622;2023-05-01T09:50:32;8.70;;;5.93;;
80101;SDS011;69407;44.966;19.622;2023-05-01T09:53:00;9.40;;;4.68;;
80101;SDS011;69407;44.966;19.622;2023-05-01T09:55:26;9.25;;;5.93;;
80101;SDS011;69407;44.966;19.622;2023-05-01T09:57:51;8.65;;;4.72;;
80101;SDS011;69407;44.966;19.622;2023-05-01T10:00:17;9.75;;;3.90;;
80101;SDS011;69407;44.966;19.622;2023-05-01T10:02:45;7.53;;;6.50;;
80101;SDS011;69407;44.966;19.622;2023-05-01T10:05:12;10.45;;;7.93;;
80101;SDS011;69407;44.966;19.622;2023-05-01T10:07:39;7.75;;;5.40;;
80101;SDS011;69407;44.966;19.622;2023-05-01T10:12:45;8.05;;;4.20;;
80101;SDS011;69407;44.966;19.622;2023-05-01T10:15:11;4.55;;;2.70;;
80101;SDS011;69407;44.966;19.622;2023-05-01T10:17:37;4.43;;;3.20;;
80101;SDS011;69407;44.966;19.622;2023-05-01T10:20:05;5.07;;;2.88;;
80101;SDS011;69407;44.966;19.622;2023-05-01T10:22:32;5.10;;;3.40;;
80101;SDS011;69407;44.966;19.622;2023-05-01T10:24:58;12.15;;;3.45;;
80101;SDS011;69407;44.966;19.622;2023-05-01T18:55:41;7.53;;;3.58;;
80101;SDS011;69407;44.966;19.622;2023-05-01T18:58:06;7.68;;;3.78;;
80101;SDS011;69407;44.966;19.622;2023-05-01T19:00:32;5.97;;;3.67;;
80101;SDS011;69407;44.966;19.622;2023-05-01T19:02:58;6.95;;;3.55;;
80101;SDS011;69407;44.966;19.622;2023-05-01T19:05:23;6.03;;;3.70;;
80101;SDS011;69407;44.966;19.622;2023-05-01T19:07:49;6.22;;;4.10;;
80101;SDS011;69407;44.966;19.622;2023-05-01T19:10:15;8.18;;;3.58;;
80101;SDS011;69407;44.966;19.622;2023-05-01T19:12:41;6.38;;;3.38;;
80101;SDS011;69407;44.966;19.622;2023-05-01T19:15:07;6.20;;;3.30;;
80101;SDS011;69407;44.966;19.622;2023-05-01T19:17:33;5.78;;;3.55;;
80101;SDS011;69407;44.966;19.622;2023-05-01T19:19:59;7.97;;;3.25;;
80101;SDS011;69407;44.966;19.622;2023-05-01T19:22:24;7.88;;;4.07;;
80101;SDS011;69407;44.966;19.622;2023-05-01T19:24:50;6.57;;;3.08;;
80101;SDS011;69407;44.966;19.622;2023-05-01T19:27:15;4.38;;;3.25;;
80101;SDS011;69407;44.966;19.622;2023-05-01T19:29:44;7.13;;;3.22;;
80101;SDS011;69407;44.966;19.622;2023-05-01T19:32:09;5.97;;;3.13;;
80101;SDS011;69407;44.966;19.622;2023-05-01T19:34:35;6.50;;;3.70;;
80101;SDS011;69407;44.966;19.622;2023-05-01T19:37:00;12.90;;;5.15;;
80101;SDS011;69407;44.966;19.622;2023-05-01T19:39:27;14.02;;;6.03;;
80101;SDS011;69407;44.966;19.622;2023-05-01T19:41:53;18.40;;;6.13;;
80101;SDS011;69407;44.966;19.622;2023-05-01T19:44:18;14.10;;;6.65;;
80101;SDS011;69407;44.966;19.622;2023-05-01T19:46:44;9.00;;;5.03;;
80101;SDS011;69407;44.966;19.622;2023-05-01T19:49:10;5.65;;;3.25;;
80101;SDS011;69407;44.966;19.622;2023-05-01T19:51:36;8.13;;;3.80;;
80101;SDS011;69407;44.966;19.622;2023-05-01T19:54:01;5.88;;;3.17;;
80101;SDS011;69407;44.966;19.622;2023-05-01T19:56:29;4.50;;;2.75;;
80101;SDS011;69407;44.966;19.622;2023-05-01T19:58:55;5.75;;;2.92;;
80101;SDS011;69407;44.966;19.622;2023-05-01T20:01:21;5.80;;;3.25;;
80101;SDS011;69407;44.966;19.622;2023-05-01T20:03:46;5.30;;;3.33;;
80101;SDS011;69407;44.966;19.622;2023-05-01T20:06:12;5.05;;;3.10;;
80101;SDS011;69407;44.966;19.622;2023-05-01T20:08:39;5.25;;;2.90;;
80101;SDS011;69407;44.966;19.622;2023-05-01T20:11:05;4.55;;;2.35;;
80101;SDS011;69407;44.966;19.622;2023-05-01T20:13:31;4.57;;;2.58;;
80101;SDS011;69407;44.966;19.622;2023-05-01T20:15:57;5.10;;;2.58;;
80101;SDS011;69407;44.966;19.622;2023-05-01T20:18:23;3.72;;;2.47;;
80101;SDS011;69407;44.966;19.622;2023-05-01T20:20:48;4.20;;;2.55;;
80101;SDS011;69407;44.966;19.622;2023-05-01T20:23:15;6.63;;;2.42;;
80101;SDS011;69407;44.966;19.622;2023-05-01T20:25:41;5.88;;;2.70;;
80101;SDS011;69407;44.966;19.622;2023-05-01T20:28:08;6.05;;;3.38;;
80101;SDS011;69407;44.966;19.622;2023-05-01T20:30:38;7.22;;;2.20;;
80101;SDS011;69407;44.966;19.622;2023-05-01T20:33:05;3.05;;;2.00;;
80101;SDS011;69407;44.966;19.622;2023-05-01T20:35:31;3.92;;;2.65;;
80101;SDS011;69407;44.966;19.622;2023-05-01T20:37:58;4.00;;;2.67;;
80101;SDS011;69407;44.966;19.622;2023-05-01T20:40:24;6.13;;;2.55;;
80101;SDS011;69407;44.966;19.622;2023-05-01T20:42:50;12.98;;;2.85;;
80101;SDS011;69407;44.966;19.622;2023-05-01T20:45:16;6.97;;;2.63;;
80101;SDS011;69407;44.966;19.622;2023-05-01T20:47:42;9.80;;;2.88;;
80101;SDS011;69407;44.966;19.622;2023-05-01T20:50:07;5.30;;;2.22;;
80101;SDS011;69407;44.966;19.622;2023-05-01T20:52:33;4.72;;;2.20;;
80101;SDS011;69407;44.966;19.622;2023-05-01T20:54:59;6.68;;;2.35;;
80101;SDS011;69407;44.966;19.622;2023-05-01T20:57:24;5.20;;;2.33;;
80101;SDS011;69407;44.966;19.622;2023-05-01T20:59:51;4.35;;;2.42;;
80101;SDS011;69407;44.966;19.622;2023-05-01T21:02:17;4.38;;;2.38;;
80101;SDS011;69407;44.966;19.622;2023-05-01T21:04:42;8.88;;;3.92;;
80101;SDS011;69407;44.966;19.622;2023-05-01T21:07:10;18.17;;;3.25;;
80101;SDS011;69407;44.966;19.622;2023-05-01T21:09:36;7.00;;;2.08;;
80101;SDS011;69407;44.966;19.622;2023-05-01T21:12:04;4.25;;;2.65;;
80101;SDS011;69407;44.966;19.622;2023-05-01T21:14:31;4.45;;;2.70;;
80101;SDS011;69407;44.966;19.622;2023-05-01T21:16:56;4.65;;;2.80;;
80101;SDS011;69407;44.966;19.622;2023-05-01T21:19:22;5.53;;;2.42;;
80101;SDS011;69407;44.966;19.622;2023-05-01T21:21:48;4.47;;;2.50;;
80101;SDS011;69407;44.966;19.622;2023-05-01T21:24:17;6.20;;;2.30;;
80101;SDS011;69407;44.966;19.622;2023-05-01T21:26:46;6.75;;;2.60;;
80101;SDS011;69407;44.966;19.622;2023-05-01T21:29:12;5.90;;;2.90;;
80101;SDS011;69407;44.966;19.622;2023-05-01T21:31:38;5.07;;;2.63;;
80101;SDS011;69407;44.966;19.622;2023-05-01T21:34:03;3.50;;;2.28;;
80101;SDS011;69407;44.966;19.622;2023-05-01T21:36:30;7.30;;;2.75;;
80101;SDS011;69407;44.966;19.622;2023-05-01T21:38:56;5.65;;;2.53;;
80101;SDS011;69407;44.966;19.622;2023-05-01T21:41:24;4.63;;;2.97;;
80101;SDS011;69407;44.966;19.622;2023-05-01T21:43:50;6.13;;;2.60;;
80101;SDS011;69407;44.966;19.622;2023-05-01T21:46:16;6.22;;;2.97;;
80101;SDS011;69407;44.966;19.622;2023-05-01T21:48:43;4.57;;;2.58;;
80101;SDS011;69407;44.966;19.622;2023-05-01T21:51:13;4.20;;;2.85;;
80101;SDS011;69407;44.966;19.622;2023-05-01T21:53:39;7.07;;;2.95;;
80101;SDS011;69407;44.966;19.622;2023-05-01T21:56:06;4.88;;;2.22;;
80101;SDS011;69407;44.966;19.622;2023-05-01T21:58:33;4.60;;;2.65;;
80101;SDS011;69407;44.966;19.622;2023-05-01T22:00:59;5.72;;;2.83;;
80101;SDS011;69407;44.966;19.622;2023-05-01T22:03:25;4.85;;;2.28;;
80101;SDS011;69407;44.966;19.622;2023-05-01T22:05:51;6.60;;;2.95;;
80101;SDS011;69407;44.966;19.622;2023-05-01T22:08:17;5.32;;;2.53;;
80101;SDS011;69407;44.966;19.622;2023-05-01T22:10:43;5.43;;;2.65;;
80101;SDS011;69407;44.966;19.622;2023-05-01T22:13:09;7.25;;;2.55;;
80101;SDS011;69407;44.966;19.622;2023-05-01T22:15:35;5.65;;;3.67;;
80101;SDS011;69407;44.966;19.622;2023-05-01T22:18:01;4.82;;;2.80;;
80101;SDS011;69407;44.966;19.622;2023-05-01T22:20:26;5.57;;;2.90;;
80101;SDS011;69407;44.966;19.622;2023-05-01T22:22:52;5.15;;;2.55;;
80101;SDS011;69407;44.966;19.622;2023-05-01T22:25:17;6.07;;;2.63;;
80101;SDS011;69407;44.966;19.622;2023-05-01T22:27:43;4.00;;;2.30;;
80101;SDS011;69407;44.966;19.622;2023-05-01T22:30:09;5.43;;;2.28;;
80101;SDS011;69407;44.966;19.622;2023-05-01T22:32:35;3.67;;;2.60;;
80101;SDS011;69407;44.966;19.622;2023-05-01T22:35:00;9.00;;;2.25;;
80101;SDS011;69407;44.966;19.622;2023-05-01T22:37:26;8.32;;;2.75;;
80101;SDS011;69407;44.966;19.622;2023-05-01T22:39:51;4.68;;;2.60;;
80101;SDS011;69407;44.966;19.622;2023-05-01T22:42:17;4.10;;;2.58;;
80101;SDS011;69407;44.966;19.622;2023-05-01T22:44:43;4.95;;;2.17;;
80101;SDS011;69407;44.966;19.622;2023-05-01T22:47:08;3.72;;;2.25;;
80101;SDS011;69407;44.966;19.622;2023-05-01T22:49:34;6.28;;;2.72;;
80101;SDS011;69407;44.966;19.622;2023-05-01T22:52:00;6.70;;;3.15;;
80101;SDS011;69407;44.966;19.622;2023-05-01T22:54:26;7.10;;;2.75;;
80101;SDS011;69407;44.966;19.622;2023-05-01T22:56:51;7.50;;;2.92;;
80101;SDS011;69407;44.966;19.622;2023-05-01T22:59:17;5.75;;;2.85;;
80101;SDS011;69407;44.966;19.622;2023-05-01T23:01:43;5.63;;;3.03;;
80101;SDS011;69407;44.966;19.622;2023-05-01T23:04:10;4.40;;;2.38;;
80101;SDS011;69407;44.966;19.622;2023-05-01T23:06:36;4.65;;;2.30;;
80101;SDS011;69407;44.966;19.622;2023-05-01T23:09:02;4.30;;;3.00;;
80101;SDS011;69407;44.966;19.622;2023-05-01T23:11:31;5.90;;;2.45;;
80101;SDS011;69407;44.966;19.622;2023-05-01T23:13:58;4.80;;;2.40;;
80101;SDS011;69407;44.966;19.622;2023-05-01T23:16:24;5.00;;;2.38;;
80101;SDS011;69407;44.966;19.622;2023-05-01T23:18:49;5.90;;;2.50;;